createdAt,value
2022-12-16T00:00:21.838Z,85.61
2022-12-16T00:03:30.994Z,85.70
2022-12-16T00:06:39.392Z,85.03
2022-12-16T00:09:49.035Z,85.61
2022-12-16T00:12:57.275Z,85.86
2022-12-16T00:16:08.107Z,86.90
2022-12-16T00:19:16.705Z,86.16
2022-12-16T00:22:25.282Z,84.92
2022-12-16T00:25:34.982Z,85.15
2022-12-16T00:28:44.125Z,85.85
2022-12-16T00:31:52.571Z,85.69
2022-12-16T00:35:02.230Z,85.78
2022-12-16T00:38:10.594Z,85.90
2022-12-16T00:41:20.504Z,85.32
2022-12-16T00:44:28.797Z,85.41
2022-12-16T00:47:41.024Z,85.04
2022-12-16T00:50:55.123Z,84.98
2022-12-16T00:54:03.762Z,84.56
2022-12-16T00:57:13.714Z,84.36
2022-12-16T01:00:22.457Z,84.63
2022-12-16T01:03:30.801Z,85.21
2022-12-16T01:06:39.087Z,84.20
2022-12-16T01:09:47.371Z,85.01
2022-12-16T01:12:56.956Z,84.84
2022-12-16T01:16:05.797Z,84.85
2022-12-16T01:19:14.027Z,84.11
2022-12-16T01:22:23.646Z,84.33
2022-12-16T01:25:32.028Z,83.97
2022-12-16T01:28:41.621Z,84.72
2022-12-16T01:31:49.952Z,83.92
2022-12-16T01:35:00.571Z,83.99
2022-12-16T01:38:08.818Z,84.38
2022-12-16T01:41:19.205Z,84.72
2022-12-16T01:44:29.004Z,86.10
2022-12-16T01:47:37.326Z,86.95
2022-12-16T01:50:46.787Z,86.78
2022-12-16T01:54:03.003Z,87.13
2022-12-16T01:57:16.745Z,88.17
2022-12-16T02:00:26.541Z,88.49
2022-12-16T02:03:38.287Z,87.83
2022-12-16T02:06:46.842Z,88.52
2022-12-16T02:09:57.185Z,87.46
2022-12-16T02:13:19.408Z,85.95
2022-12-16T02:16:37.784Z,85.75
2022-12-16T02:20:36.135Z,84.92
2022-12-16T02:24:31.802Z,86.03
2022-12-16T02:28:02.217Z,86.29
2022-12-16T02:31:27.640Z,87.58
2022-12-16T02:34:47.109Z,87.06
2022-12-16T02:38:22.377Z,87.33
2022-12-16T02:41:44.837Z,87.33
2022-12-16T02:45:02.543Z,87.62
2022-12-16T02:52:59.810Z,85.84
2022-12-16T02:56:26.935Z,85.75
2022-12-16T02:59:45.079Z,85.55
2022-12-16T03:03:02.291Z,86.68
2022-12-16T03:06:15.052Z,86.25
2022-12-16T03:09:30.484Z,85.29
2022-12-16T03:12:44.627Z,85.48
2022-12-16T03:15:59.477Z,84.46
2022-12-16T03:19:12.550Z,85.43
2022-12-16T03:22:28.981Z,84.94
2022-12-16T03:25:45.164Z,85.21
2022-12-16T03:29:02.669Z,85.46
2022-12-16T03:32:18.890Z,85.61
2022-12-16T03:35:34.459Z,84.37
2022-12-16T03:38:46.600Z,84.06
2022-12-16T03:41:57.543Z,84.12
2022-12-16T03:45:09.352Z,84.21
2022-12-16T03:48:20.521Z,84.22
2022-12-16T03:51:28.928Z,84.96
2022-12-16T03:54:37.163Z,84.14
2022-12-16T03:57:46.913Z,85.27
2022-12-16T04:00:56.329Z,85.74
2022-12-16T04:04:06.959Z,86.52
2022-12-16T04:07:24.766Z,87.13
2022-12-16T04:10:50.837Z,87.66
2022-12-16T04:14:18.364Z,87.31
2022-12-16T04:17:44.013Z,87.52
2022-12-16T04:21:14.817Z,88.02
2022-12-16T04:24:30.936Z,88.20
2022-12-16T04:27:39.219Z,87.69
2022-12-16T04:30:48.796Z,88.72
2022-12-16T04:34:26.256Z,89.19
2022-12-16T04:38:03.411Z,89.03
2022-12-16T04:41:29.560Z,88.19
2022-12-16T04:44:55.709Z,87.50
2022-12-16T04:48:23.532Z,87.62
2022-12-16T04:51:49.129Z,87.44
2022-12-16T04:55:14.648Z,86.33
2022-12-16T04:58:40.423Z,86.09
2022-12-16T05:02:06.389Z,85.09
2022-12-16T05:05:33.658Z,85.90
2022-12-16T05:08:59.433Z,85.85
2022-12-16T05:12:25.094Z,86.12
2022-12-16T05:15:50.722Z,87.55
2022-12-16T05:19:12.872Z,86.62
2022-12-16T05:22:40.302Z,87.49
2022-12-16T05:26:06.217Z,87.19
2022-12-16T05:29:32.090Z,87.20
2022-12-16T05:32:57.590Z,86.08
2022-12-16T05:36:24.300Z,87.13
2022-12-16T05:39:51.459Z,87.72
2022-12-16T05:43:17.475Z,87.90
2022-12-16T05:46:43.511Z,88.79
2022-12-16T05:50:09.472Z,88.40
2022-12-16T05:53:35.197Z,88.00
2022-12-16T05:57:10.981Z,87.81
2022-12-16T06:00:37.565Z,87.72
2022-12-16T06:04:03.593Z,87.65
2022-12-16T06:07:29.477Z,88.43
2022-12-16T06:10:55.144Z,87.53
2022-12-16T06:14:22.394Z,87.48
2022-12-16T06:17:48.152Z,88.32
2022-12-16T06:21:14.019Z,88.74
2022-12-16T06:24:39.772Z,89.10
2022-12-16T06:28:09.794Z,88.51
2022-12-16T06:31:36.744Z,88.77
2022-12-16T06:35:02.776Z,88.34
2022-12-16T06:38:28.799Z,87.40
2022-12-16T06:41:54.878Z,86.96
2022-12-16T06:45:20.610Z,87.36
2022-12-16T06:48:44.007Z,87.18
2022-12-16T06:52:24.357Z,86.70
2022-12-16T06:55:59.602Z,86.51
2022-12-16T06:59:25.146Z,86.23
2022-12-16T07:02:50.994Z,86.87
2022-12-16T07:06:17.996Z,86.86
2022-12-16T07:09:43.831Z,87.34
2022-12-16T07:13:09.795Z,87.10
2022-12-16T07:16:35.653Z,87.68
2022-12-16T07:20:01.214Z,87.82
2022-12-16T07:23:28.460Z,87.73
2022-12-16T07:26:54.384Z,88.31
2022-12-16T07:30:20.224Z,88.15
2022-12-16T07:33:46.146Z,87.62
2022-12-16T07:37:11.814Z,87.30
2022-12-16T07:40:38.746Z,86.39
2022-12-16T07:44:04.422Z,87.22
2022-12-16T07:47:30.332Z,86.79
2022-12-16T07:50:56.506Z,86.64
2022-12-16T07:54:22.493Z,86.62
2022-12-16T07:57:49.734Z,85.92
2022-12-16T08:01:15.441Z,86.34
2022-12-16T08:04:41.316Z,86.49
2022-12-16T08:08:07.197Z,85.94
2022-12-16T08:11:32.936Z,86.28
2022-12-16T08:14:59.771Z,85.64
2022-12-16T08:18:25.621Z,86.10
2022-12-16T08:21:51.411Z,85.27
2022-12-16T08:25:31.711Z,85.46
2022-12-16T08:29:05.482Z,85.26
2022-12-16T08:32:44.495Z,85.01
2022-12-16T08:36:10.357Z,86.29
2022-12-16T08:39:36.296Z,86.07
2022-12-16T08:43:03.121Z,86.42
2022-12-16T08:46:31.211Z,86.38
2022-12-16T08:50:01.592Z,85.66
2022-12-16T08:53:28.086Z,85.01
2022-12-16T08:56:53.895Z,84.35
2022-12-16T09:00:20.567Z,84.27
2022-12-16T09:03:46.538Z,84.96
2022-12-16T09:07:25.217Z,83.79
2022-12-16T09:10:50.828Z,84.74
2022-12-16T09:14:17.023Z,84.48
2022-12-16T09:17:42.702Z,84.23
2022-12-16T09:21:12.437Z,84.54
2022-12-16T09:24:35.880Z,84.45
2022-12-16T09:28:01.525Z,81.75
2022-12-16T09:31:27.486Z,81.66
2022-12-16T09:34:49.664Z,80.31
2022-12-16T09:38:15.132Z,80.11
2022-12-16T09:42:00.392Z,79.56
2022-12-16T09:45:39.327Z,80.65
2022-12-16T09:49:12.940Z,79.95
2022-12-16T09:52:41.297Z,80.21
2022-12-16T09:56:07.230Z,79.40
2022-12-16T09:59:43.659Z,79.31
2022-12-16T10:03:10.351Z,79.40
2022-12-16T10:06:52.618Z,79.05
2022-12-16T10:10:34.824Z,79.54
2022-12-16T10:14:19.266Z,79.87
2022-12-16T10:17:46.841Z,80.41
2022-12-16T10:21:14.131Z,80.27
2022-12-16T10:24:57.893Z,80.60
2022-12-16T10:28:34.842Z,81.49
2022-12-16T10:32:01.421Z,82.53
2022-12-16T10:35:40.704Z,82.73
2022-12-16T10:39:11.539Z,83.08
2022-12-16T10:42:51.215Z,83.57
2022-12-16T10:46:19.062Z,83.76
2022-12-16T10:49:47.469Z,84.32
2022-12-16T10:53:21.454Z,83.92
2022-12-16T10:57:11.773Z,83.93
2022-12-16T11:00:55.065Z,84.26
2022-12-16T11:04:47.287Z,83.45
2022-12-16T11:08:13.269Z,84.28
2022-12-16T11:11:43.910Z,85.04
2022-12-16T11:15:28.788Z,84.04
2022-12-16T11:19:08.815Z,85.15
2022-12-16T11:22:38.825Z,83.35
2022-12-16T11:26:04.597Z,83.33
2022-12-16T11:30:28.474Z,84.36
2022-12-16T11:34:20.989Z,84.71
2022-12-16T11:37:50.342Z,84.43
2022-12-16T11:41:18.320Z,84.39
2022-12-16T11:44:51.454Z,82.87
2022-12-16T11:48:26.941Z,83.08
2022-12-16T11:52:08.106Z,83.00
2022-12-16T11:59:45.759Z,81.18
2022-12-16T12:03:24.347Z,80.78
2022-12-16T12:07:11.290Z,79.20
2022-12-16T12:11:21.883Z,78.95
2022-12-16T12:14:58.143Z,79.71
2022-12-16T12:18:42.478Z,80.48
2022-12-16T12:22:19.958Z,80.44
2022-12-16T12:25:59.456Z,81.22
2022-12-16T12:29:37.175Z,82.48
2022-12-16T12:33:16.955Z,82.09
2022-12-16T12:36:56.829Z,82.43
2022-12-16T12:40:44.706Z,82.34
2022-12-16T12:44:36.396Z,82.11
2022-12-16T12:48:16.322Z,82.85
2022-12-16T12:51:53.074Z,83.03
2022-12-16T12:55:29.196Z,82.93
2022-12-16T12:58:57.573Z,82.95
2022-12-16T13:02:31.123Z,82.17
2022-12-16T13:05:58.927Z,81.54
2022-12-16T13:09:49.648Z,80.37
2022-12-16T13:13:52.534Z,79.33
2022-12-16T13:17:23.705Z,80.29
2022-12-16T13:20:56.709Z,80.84
2022-12-16T13:24:52.594Z,80.53
2022-12-16T13:28:19.103Z,80.62
2022-12-16T13:31:48.688Z,80.30
2022-12-16T13:35:19.716Z,80.23
2022-12-16T13:38:45.715Z,79.69
2022-12-16T13:42:19.110Z,80.54
2022-12-16T13:45:51.926Z,81.15
2022-12-16T13:49:59.743Z,81.49
2022-12-16T13:53:33.458Z,80.10
2022-12-16T13:57:07.109Z,80.42
2022-12-16T14:00:41.690Z,81.05
2022-12-16T14:04:11.804Z,80.83
2022-12-16T14:07:41.832Z,81.13
2022-12-16T14:11:19.467Z,81.98
2022-12-16T14:14:52.696Z,80.46
2022-12-16T14:18:41.914Z,82.04
2022-12-16T14:22:18.876Z,81.60
2022-12-16T14:25:44.978Z,81.61
2022-12-16T14:29:08.024Z,81.40
2022-12-16T14:32:45.059Z,81.57
2022-12-16T14:36:12.307Z,81.62
2022-12-16T14:39:42.467Z,81.78
2022-12-16T14:43:13.168Z,83.89
2022-12-16T14:46:48.828Z,82.88
2022-12-16T14:50:14.443Z,83.79
2022-12-16T14:53:49.241Z,83.08
2022-12-16T14:57:16.469Z,83.41
2022-12-16T15:00:43.544Z,83.48
2022-12-16T15:04:09.912Z,82.93
2022-12-16T15:07:36.122Z,83.35
2022-12-16T15:11:03.713Z,83.98
2022-12-16T15:14:37.712Z,83.33
2022-12-16T15:18:09.537Z,82.57
2022-12-16T15:21:35.578Z,83.74
2022-12-16T15:25:02.627Z,83.30
2022-12-16T15:28:55.564Z,84.00
2022-12-16T15:32:21.513Z,83.01
2022-12-16T15:35:51.523Z,83.74
2022-12-16T15:39:17.423Z,83.23
2022-12-16T15:42:47.172Z,83.80
2022-12-16T15:46:14.473Z,83.35
2022-12-16T15:49:51.036Z,83.99
2022-12-16T15:53:35.882Z,83.78
2022-12-16T15:57:04.050Z,83.15
2022-12-16T16:00:41.913Z,83.15
2022-12-16T16:04:12.198Z,83.40
2022-12-16T16:07:41.027Z,84.25
2022-12-16T16:11:07.166Z,83.33
2022-12-16T16:14:32.789Z,83.64
2022-12-16T16:17:58.586Z,83.50
2022-12-16T16:21:25.818Z,84.39
2022-12-16T16:24:51.652Z,84.10
2022-12-16T16:28:17.656Z,83.43
2022-12-16T16:31:43.526Z,83.72
2022-12-16T16:35:10.269Z,83.85
2022-12-16T16:38:37.470Z,82.63
2022-12-16T16:42:03.733Z,83.09
2022-12-16T16:45:30.468Z,84.21
2022-12-16T16:48:56.507Z,83.38
2022-12-16T16:52:22.055Z,84.23
2022-12-16T16:55:49.176Z,85.41
2022-12-16T17:03:05.244Z,84.26
2022-12-16T17:06:31.333Z,83.57
2022-12-16T17:09:57.319Z,83.58
2022-12-16T17:13:24.948Z,83.62
2022-12-16T17:16:51.037Z,83.21
2022-12-16T17:20:16.688Z,82.99
2022-12-16T17:23:42.514Z,82.48
2022-12-16T17:27:23.163Z,82.41
2022-12-16T17:31:05.513Z,82.93
2022-12-16T17:34:31.522Z,83.84
2022-12-16T17:37:57.617Z,82.99
2022-12-16T17:41:23.809Z,83.31
2022-12-16T17:44:49.693Z,83.23
2022-12-16T17:48:16.785Z,82.55
2022-12-16T17:51:43.542Z,83.43
2022-12-16T17:55:09.618Z,82.75
2022-12-16T17:58:35.525Z,83.69
2022-12-16T18:02:01.400Z,83.05
2022-12-16T18:05:36.674Z,82.14
2022-12-16T18:09:05.121Z,82.06
2022-12-16T18:12:30.839Z,82.60
2022-12-16T18:15:56.940Z,82.90
2022-12-16T18:19:22.831Z,83.69
2022-12-16T18:22:50.512Z,83.95
2022-12-16T18:26:20.188Z,83.54
2022-12-16T18:29:46.520Z,82.96
2022-12-16T18:33:12.533Z,82.47
2022-12-16T18:36:38.548Z,83.05
2022-12-16T18:40:06.006Z,82.98
2022-12-16T18:43:32.112Z,84.16
2022-12-16T18:46:58.068Z,83.96
2022-12-16T18:50:29.417Z,83.11
2022-12-16T18:53:56.467Z,83.60
2022-12-16T18:57:23.350Z,85.25
2022-12-16T19:00:49.296Z,84.32
2022-12-16T19:04:16.380Z,84.69
2022-12-16T19:07:44.082Z,85.04
2022-12-16T19:11:11.966Z,84.62
2022-12-16T19:14:39.760Z,85.02
2022-12-16T19:18:05.630Z,85.46
2022-12-16T19:21:32.160Z,85.20
2022-12-16T19:24:57.984Z,85.31
2022-12-16T19:28:23.811Z,86.06
2022-12-16T19:31:51.838Z,86.81
2022-12-16T19:35:18.025Z,85.53
2022-12-16T19:38:44.342Z,85.48
2022-12-16T19:42:12.113Z,86.14
2022-12-16T19:45:38.170Z,85.24
2022-12-16T19:49:05.403Z,84.42
2022-12-16T19:52:31.079Z,85.28
2022-12-16T19:55:57.016Z,85.60
2022-12-16T19:59:22.822Z,85.40
2022-12-16T20:02:50.471Z,85.60
2022-12-16T20:06:26.540Z,85.86
2022-12-16T20:09:54.766Z,85.55
2022-12-16T20:13:30.079Z,85.34
2022-12-16T20:16:59.242Z,85.60
2022-12-16T20:20:26.449Z,84.88
2022-12-16T20:23:54.272Z,85.74
2022-12-16T20:27:20.465Z,85.07
2022-12-16T20:30:46.320Z,85.98
2022-12-16T20:34:13.134Z,85.91
2022-12-16T20:37:51.656Z,85.53
2022-12-16T20:41:21.603Z,85.20
2022-12-16T20:44:47.843Z,84.98
2022-12-16T20:48:14.399Z,85.73
2022-12-16T20:51:40.716Z,85.72
2022-12-16T20:55:06.398Z,85.90
2022-12-16T20:58:38.830Z,85.64
2022-12-16T21:05:50.660Z,85.92
2022-12-16T21:09:18.194Z,86.57
2022-12-16T21:12:44.001Z,86.00
2022-12-16T21:16:15.876Z,85.45
2022-12-16T21:19:42.361Z,85.54
2022-12-16T21:23:15.665Z,84.13
2022-12-16T21:26:41.793Z,84.53
2022-12-16T21:30:07.944Z,85.31
2022-12-16T21:33:38.807Z,85.40
2022-12-16T21:37:04.502Z,85.36
2022-12-16T21:40:36.349Z,84.49
2022-12-16T21:44:02.308Z,85.05
2022-12-16T21:47:28.191Z,84.62
2022-12-16T21:50:55.846Z,84.46
2022-12-16T21:54:22.907Z,85.19
2022-12-16T21:57:48.975Z,85.09
2022-12-16T22:01:17.179Z,84.92
2022-12-16T22:04:43.577Z,84.49
2022-12-16T22:08:13.243Z,84.89
2022-12-16T22:11:39.481Z,84.89
2022-12-16T22:15:05.515Z,84.45
2022-12-16T22:18:31.809Z,84.24
2022-12-16T22:21:57.995Z,83.48
2022-12-16T22:25:26.256Z,84.34
2022-12-16T22:28:52.155Z,84.32
2022-12-16T22:32:18.177Z,84.17
2022-12-16T22:35:44.301Z,84.09
2022-12-16T22:39:06.857Z,84.14
2022-12-16T22:42:33.966Z,85.36
2022-12-16T22:45:59.778Z,84.42
2022-12-16T22:49:25.444Z,84.56
2022-12-16T22:53:00.117Z,85.68
2022-12-16T22:56:26.450Z,86.15
2022-12-16T22:59:53.985Z,85.00
2022-12-16T23:03:20.395Z,84.96
2022-12-16T23:06:46.419Z,86.18
2022-12-16T23:10:11.952Z,85.86
2022-12-16T23:13:37.822Z,85.97
2022-12-16T23:17:05.535Z,85.07
2022-12-16T23:20:31.226Z,85.13
2022-12-16T23:23:57.221Z,85.21
2022-12-16T23:27:23.259Z,85.79
2022-12-16T23:30:48.975Z,85.25
2022-12-16T23:34:15.809Z,84.52
2022-12-16T23:37:42.443Z,84.34
2022-12-16T23:41:11.194Z,83.96
2022-12-16T23:44:37.240Z,83.14
2022-12-16T23:48:03.629Z,83.88
2022-12-16T23:51:39.345Z,82.93
2022-12-16T23:55:16.583Z,83.68
2022-12-16T23:58:42.443Z,83.04
